Time;durP1;ratioP1;P1;durP2;ratioP2;P2;SDS_P1;SDS_P2;PMS_P1;PMS_P2;Temp;Humidity;BMP_temperature;BMP_pressure;BME280_temperature;BME280_humidity;BME280_pressure;Samples;Min_cycle;Max_cycle;Signal;HPM_P1;HPM_P2
2022/11/03 00:02:06;;;;;;;5.07;1.73;;;14.60;97.20;;;;;;5075787;28;20549;-72
2022/11/03 00:04:34;;;;;;;7.80;3.03;;;14.60;97.20;;;;;;5059261;28;20508;-72
2022/11/03 00:07:02;;;;;;;4.73;2.57;;;14.60;97.20;;;;;;5055855;28;20425;-72
2022/11/03 00:09:33;;;;;;;7.00;2.93;;;14.60;97.20;;;;;;5019763;28;20806;-72
2022/11/03 00:12:00;;;;;;;3.47;1.77;;;14.60;97.20;;;;;;5022079;28;20425;-72
2022/11/03 00:14:27;;;;;;;9.27;3.00;;;14.60;97.20;;;;;;5021831;28;20977;-73
2022/11/03 00:16:55;;;;;;;4.83;2.20;;;14.60;97.20;;;;;;5038679;28;20481;-72
2022/11/03 00:19:23;;;;;;;5.50;2.00;;;14.60;97.30;;;;;;5063679;28;20446;-72
2022/11/03 00:21:49;;;;;;;4.50;1.70;;;14.60;97.30;;;;;;5055395;28;20414;-72
2022/11/03 00:24:20;;;;;;;5.57;2.50;;;14.50;97.20;;;;;;5037749;28;20199;-73
2022/11/03 00:26:48;;;;;;;7.97;2.27;;;14.60;97.20;;;;;;5037377;28;20466;-73
2022/11/03 00:29:14;;;;;;;5.77;2.37;;;14.50;97.20;;;;;;5039681;28;20942;-72
2022/11/03 00:31:45;;;;;;;4.73;1.63;;;14.50;97.20;;;;;;5057354;28;20424;-72
2022/11/03 00:34:18;;;;;;;6.80;2.20;;;14.50;97.20;;;;;;5025229;28;20433;-72
2022/11/03 00:36:44;;;;;;;4.73;2.10;;;14.50;97.20;;;;;;5074940;28;20408;-72
2022/11/03 00:39:11;;;;;;;6.40;2.50;;;14.50;97.20;;;;;;5042168;28;21025;-71
2022/11/03 00:41:42;;;;;;;6.27;2.10;;;14.50;97.20;;;;;;5047060;28;20465;-72
2022/11/03 00:44:12;;;;;;;5.37;1.87;;;14.50;97.30;;;;;;5066475;28;20433;-72
2022/11/03 00:46:42;;;;;;;5.00;2.47;;;14.50;97.30;;;;;;5040469;28;20460;-72
2022/11/03 00:49:11;;;;;;;6.73;2.10;;;14.50;97.30;;;;;;5015033;28;20492;-72
2022/11/03 00:51:42;;;;;;;3.70;1.90;;;14.50;97.40;;;;;;5054829;28;20391;-72
2022/11/03 00:54:10;;;;;;;4.93;2.30;;;14.50;97.30;;;;;;5037142;28;20814;-72
2022/11/03 00:56:40;;;;;;;6.40;2.27;;;14.50;97.30;;;;;;5036720;28;20418;-72
2022/11/03 00:59:08;;;;;;;4.00;2.00;;;14.50;97.40;;;;;;5052696;28;20652;-72
2022/11/03 01:01:39;;;;;;;7.60;2.30;;;14.50;97.40;;;;;;5020897;28;20439;-72
2022/11/03 01:06:59;;;;;;;7.40;2.23;;;14.50;97.50;;;;;;5037867;28;20424;-72
2022/11/03 01:09:33;;;;;;;4.93;1.90;;;14.50;97.40;;;;;;5048273;28;20457;-73
2022/11/03 01:12:09;;;;;;;5.77;2.20;;;14.50;97.50;;;;;;5056424;28;20404;-73
2022/11/03 01:14:47;;;;;;;3.60;2.20;;;14.50;97.50;;;;;;5074298;28;20673;-72
2022/11/03 01:17:24;;;;;;;3.90;1.63;;;14.50;97.60;;;;;;5039971;28;20874;-72
2022/11/03 01:19:50;;;;;;;3.73;2.00;;;14.50;97.60;;;;;;5063874;28;20964;-72
2022/11/03 01:22:17;;;;;;;7.23;2.27;;;14.50;97.60;;;;;;5039650;28;20413;-72
2022/11/03 01:24:44;;;;;;;4.33;2.33;;;14.50;97.60;;;;;;5056514;28;20837;-72
2022/11/03 01:27:15;;;;;;;8.20;2.37;;;14.50;97.60;;;;;;5073996;28;20475;-73
2022/11/03 01:29:42;;;;;;;6.10;2.33;;;14.50;97.70;;;;;;5039452;28;20443;-73
2022/11/03 01:32:13;;;;;;;6.70;2.50;;;14.50;97.70;;;;;;5037427;28;20417;-71
2022/11/03 01:34:42;;;;;;;4.20;1.70;;;14.50;97.70;;;;;;5036731;28;20445;-72
2022/11/03 01:37:08;;;;;;;6.63;2.90;;;14.50;97.60;;;;;;5039806;28;20807;-72
2022/11/03 01:39:34;;;;;;;6.20;2.27;;;14.50;97.70;;;;;;5039294;28;20456;-72
2022/11/03 01:42:02;;;;;;;3.33;1.93;;;14.50;97.70;;;;;;5073327;28;20905;-72
2022/11/03 01:44:36;;;;;;;7.17;2.70;;;14.40;97.60;;;;;;5039047;28;20504;-72
2022/11/03 01:47:02;;;;;;;6.40;2.23;;;14.40;97.70;;;;;;5039401;28;20905;-72
2022/11/03 01:49:45;;;;;;;9.00;2.77;;;14.40;97.70;;;;;;5036349;28;20464;-72
2022/11/03 01:52:24;;;;;;;8.47;2.30;;;14.40;97.70;;;;;;5054425;28;20446;-73
2022/11/03 01:55:01;;;;;;;6.77;2.50;;;14.40;97.70;;;;;;5073598;28;20413;-72
2022/11/03 01:57:35;;;;;;;7.20;3.27;;;14.40;97.70;;;;;;5071204;28;20562;-73
2022/11/03 02:00:03;;;;;;;5.13;2.37;;;14.40;97.80;;;;;;5029317;28;20483;-72
2022/11/03 02:02:40;;;;;;;6.03;3.03;;;14.40;97.70;;;;;;5055479;28;20876;-72
2022/11/03 02:05:08;;;;;;;5.63;2.63;;;14.40;97.70;;;;;;5021196;28;20475;-73
2022/11/03 02:08:01;;;;;;;6.67;2.60;;;14.40;97.80;;;;;;5033192;28;20481;-72
2022/11/03 02:10:32;;;;;;;7.20;3.03;;;14.40;97.70;;;;;;5054257;28;20405;-72
2022/11/03 02:12:58;;;;;;;5.73;2.63;;;14.40;97.80;;;;;;5017496;28;20432;-72
2022/11/03 02:15:33;;;;;;;7.33;2.67;;;14.40;97.80;;;;;;5054294;28;20910;-72
2022/11/03 02:18:01;;;;;;;10.50;2.97;;;14.40;97.90;;;;;;5038909;28;20540;-72
2022/11/03 02:20:31;;;;;;;8.23;3.27;;;14.40;98.10;;;;;;5055449;28;20836;-72
2022/11/03 02:23:12;;;;;;;4.93;2.70;;;14.40;97.90;;;;;;5073146;28;20402;-72
2022/11/03 02:25:51;;;;;;;6.23;2.63;;;14.30;97.90;;;;;;5045312;28;20425;-72
2022/11/03 02:28:26;;;;;;;6.73;2.87;;;14.30;97.90;;;;;;5018717;28;20503;-72
2022/11/03 02:31:21;;;;;;;3.97;2.70;;;14.30;97.90;;;;;;5045342;28;20429;-72
2022/11/03 02:33:59;;;;;;;8.00;2.60;;;14.30;97.90;;;;;;5055255;28;20425;-72
2022/11/03 02:36:40;;;;;;;10.00;3.23;;;14.30;97.90;;;;;;5072993;28;20809;-72
2022/11/03 02:39:33;;;;;;;7.07;2.97;;;14.30;97.90;;;;;;5047785;28;20530;-72
2022/11/03 02:42:03;;;;;;;7.20;2.37;;;14.30;98.00;;;;;;5054942;28;20421;-73
2022/11/03 02:44:33;;;;;;;7.43;3.10;;;14.30;98.00;;;;;;5056602;28;20437;-72
2022/11/03 02:47:04;;;;;;;5.00;2.47;;;14.30;98.00;;;;;;5053937;28;20521;-72
2022/11/03 02:49:48;;;;;;;4.20;2.60;;;14.30;98.10;;;;;;5047767;28;20456;-73
2022/11/03 02:52:38;;;;;;;4.20;2.30;;;14.30;98.10;;;;;;5053383;28;20417;-72
2022/11/03 02:55:25;;;;;;;8.00;2.60;;;14.30;98.10;;;;;;5019142;28;20462;-72
2022/11/03 02:58:19;;;;;;;5.57;2.50;;;14.30;98.10;;;;;;5034878;28;20469;-72
2022/11/03 03:01:15;;;;;;;4.33;2.30;;;14.30;98.10;;;;;;5008600;28;20504;-72
2022/11/03 03:03:51;;;;;;;4.77;2.50;;;14.30;98.10;;;;;;5025701;28;20417;-72
2022/11/03 03:06:32;;;;;;;6.37;2.83;;;14.30;98.10;;;;;;5052912;28;20743;-72
2022/11/03 03:09:04;;;;;;;6.30;2.93;;;14.30;98.20;;;;;;5035993;28;20488;-73
2022/11/03 03:11:38;;;;;;;5.63;2.90;;;14.30;98.20;;;;;;5060888;28;20409;-71
2022/11/03 03:14:15;;;;;;;5.40;2.70;;;14.30;98.30;;;;;;5040358;28;20440;-72
2022/11/03 03:16:57;;;;;;;4.70;2.07;;;14.30;98.20;;;;;;5036650;28;20766;-72
2022/11/03 03:19:46;;;;;;;11.47;2.60;;;14.30;98.30;;;;;;5042651;28;20452;-72
2022/11/03 03:22:18;;;;;;;6.40;2.50;;;14.30;98.30;;;;;;5034748;28;20433;-72
2022/11/03 03:25:15;;;;;;;5.83;3.20;;;14.30;98.30;;;;;;5034983;28;20415;-72
2022/11/03 03:27:48;;;;;;;6.70;2.57;;;14.30;98.30;;;;;;5041208;28;20776;-72
2022/11/03 03:30:18;;;;;;;7.00;2.43;;;14.30;98.40;;;;;;5060098;28;20430;-72
2022/11/03 03:32:49;;;;;;;7.00;2.70;;;14.30;98.40;;;;;;5020522;28;20432;-72
2022/11/03 03:35:22;;;;;;;6.87;2.70;;;14.30;98.40;;;;;;5054251;28;20437;-72
2022/11/03 03:37:59;;;;;;;4.47;2.30;;;14.30;98.40;;;;;;5037451;28;20461;-72
2022/11/03 03:40:31;;;;;;;6.90;3.17;;;14.30;98.40;;;;;;5021016;28;20417;-72
2022/11/03 03:42:58;;;;;;;7.43;2.23;;;14.20;98.40;;;;;;5061454;28;20409;-72
2022/11/03 03:45:25;;;;;;;7.07;3.23;;;14.30;98.50;;;;;;5025220;28;20587;-72
2022/11/03 03:47:51;;;;;;;7.20;2.87;;;14.20;98.50;;;;;;5042571;28;20421;-72
2022/11/03 03:50:24;;;;;;;5.37;2.30;;;14.30;98.50;;;;;;5073578;28;20420;-72
2022/11/03 03:52:58;;;;;;;8.63;2.47;;;14.20;98.50;;;;;;5056539;28;20826;-72
2022/11/03 03:55:35;;;;;;;5.27;2.73;;;14.20;98.50;;;;;;5041422;28;20453;-73
2022/11/03 03:58:02;;;;;;;5.07;2.80;;;14.20;98.50;;;;;;5049975;28;20801;-72
2022/11/03 04:00:33;;;;;;;8.40;2.90;;;14.20;98.50;;;;;;5045604;28;20425;-71
2022/11/03 04:03:02;;;;;;;5.63;2.60;;;14.30;98.60;;;;;;5087382;28;20418;-72
2022/11/03 04:05:28;;;;;;;6.53;2.57;;;14.20;98.60;;;;;;5056412;28;20867;-72
2022/11/03 04:07:54;;;;;;;6.90;2.90;;;14.20;98.60;;;;;;5068307;28;20471;-72
2022/11/03 04:10:23;;;;;;;5.20;2.43;;;14.20;98.70;;;;;;5075457;28;20652;-72
2022/11/03 04:24:00;;;;;;;9.53;3.00;;;14.20;99.10;;;;;;5037788;28;20472;-72
2022/11/03 04:26:27;;;;;;;12.17;3.30;;;14.20;98.80;;;;;;5037343;28;20456;-72
2022/11/03 04:28:54;;;;;;;5.57;2.60;;;14.20;98.80;;;;;;5044530;28;20455;-73
2022/11/03 04:31:25;;;;;;;7.93;3.10;;;14.20;98.80;;;;;;5018582;28;20444;-74
2022/11/03 04:33:51;;;;;;;6.57;2.97;;;14.20;98.90;;;;;;5028256;28;20427;-73
2022/11/03 04:36:21;;;;;;;5.90;2.83;;;14.20;98.80;;;;;;5052548;28;20748;-74
2022/11/03 04:38:48;;;;;;;10.33;3.07;;;14.20;98.90;;;;;;5066051;28;21038;-74
2022/11/03 04:41:21;;;;;;;7.53;3.03;;;14.20;98.90;;;;;;5054954;28;20451;-73
2022/11/03 04:43:51;;;;;;;7.30;3.20;;;14.20;98.90;;;;;;5061087;28;20521;-73
2022/11/03 04:46:27;;;;;;;5.10;2.50;;;14.20;99.00;;;;;;5070235;28;20492;-73
2022/11/03 04:48:57;;;;;;;7.80;2.77;;;14.20;99.00;;;;;;5060390;28;20984;-74
2022/11/03 04:51:29;;;;;;;5.37;2.73;;;14.20;99.00;;;;;;5030542;28;20566;-73
2022/11/03 04:54:00;;;;;;;9.70;3.40;;;14.20;99.00;;;;;;5031177;28;20449;-73
2022/11/03 04:56:29;;;;;;;6.80;3.10;;;14.20;99.00;;;;;;5019632;28;20928;-74
2022/11/03 04:58:57;;;;;;;5.10;2.67;;;14.20;99.10;;;;;;5062072;28;20466;-74
2022/11/03 05:01:46;;;;;;;6.80;3.30;;;14.20;99.10;;;;;;5022546;28;20427;-73
2022/11/03 05:04:17;;;;;;;7.33;3.00;;;14.20;99.10;;;;;;5045010;28;20449;-74
2022/11/03 05:06:52;;;;;;;7.97;2.97;;;14.20;99.10;;;;;;5024411;28;20417;-74
2022/11/03 05:09:25;;;;;;;6.57;2.80;;;14.20;99.10;;;;;;5031370;28;20439;-73
2022/11/03 05:11:54;;;;;;;10.40;3.80;;;14.20;99.20;;;;;;5060022;28;20519;-74
2022/11/03 05:14:25;;;;;;;7.43;2.43;;;14.20;99.50;;;;;;5043395;28;20417;-74
2022/11/03 05:16:57;;;;;;;8.83;3.23;;;14.20;99.20;;;;;;5060821;28;20423;-73
2022/11/03 05:19:32;;;;;;;8.83;2.23;;;14.20;99.20;;;;;;5072480;28;20535;-73
2022/11/03 05:22:02;;;;;;;6.60;2.80;;;14.20;99.30;;;;;;5046303;28;20963;-73
2022/11/03 05:24:33;;;;;;;6.63;2.50;;;14.10;99.30;;;;;;5044548;28;20407;-73
2022/11/03 05:27:00;;;;;;;12.23;3.20;;;14.20;99.30;;;;;;5038830;28;20459;-73
2022/11/03 05:29:34;;;;;;;5.70;2.30;;;14.10;99.40;;;;;;5052318;28;20494;-74
2022/11/03 05:32:10;;;;;;;8.43;3.00;;;14.10;99.30;;;;;;5072867;28;20498;-73
2022/11/03 05:34:47;;;;;;;4.73;2.27;;;14.20;99.40;;;;;;5039070;28;20508;-73
2022/11/03 05:37:25;;;;;;;6.00;3.03;;;14.10;99.30;;;;;;5036458;28;20468;-73
2022/11/03 05:39:53;;;;;;;4.47;2.70;;;14.10;99.40;;;;;;5034949;28;20438;-74
2022/11/03 05:42:22;;;;;;;4.07;2.43;;;14.10;99.40;;;;;;5022321;28;20871;-73
2022/11/03 05:44:51;;;;;;;12.20;2.73;;;14.10;99.40;;;;;;5018842;28;20439;-73
2022/11/03 05:47:26;;;;;;;9.93;3.30;;;14.10;99.40;;;;;;5035510;28;20452;-73
2022/11/03 05:50:26;;;;;;;7.50;2.90;;;14.10;99.50;;;;;;5053143;28;20460;-73
2022/11/03 05:53:21;;;;;;;10.53;3.60;;;14.10;99.50;;;;;;5022119;28;20527;-73
2022/11/03 05:55:48;;;;;;;6.43;2.77;;;14.10;99.50;;;;;;5028514;28;20488;-73
2022/11/03 05:58:26;;;;;;;5.60;2.93;;;14.10;99.50;;;;;;5018386;28;20484;-73
2022/11/03 06:00:57;;;;;;;8.03;2.83;;;14.10;99.50;;;;;;5067041;28;20433;-73
2022/11/03 06:03:27;;;;;;;5.60;2.40;;;14.10;99.50;;;;;;5028507;28;20426;-74
2022/11/03 06:05:57;;;;;;;8.50;2.60;;;14.10;99.60;;;;;;5054901;28;20946;-74
2022/11/03 06:08:29;;;;;;;9.13;2.63;;;14.10;99.60;;;;;;5066947;28;20445;-73
2022/11/03 06:10:59;;;;;;;8.90;2.40;;;14.10;99.60;;;;;;5054565;28;20446;-73
2022/11/03 06:13:37;;;;;;;8.70;3.80;;;14.10;99.60;;;;;;5022998;28;20428;-73
2022/11/03 06:16:36;;;;;;;8.97;2.27;;;14.10;99.60;;;;;;5053078;28;20459;-73
2022/11/03 06:19:17;;;;;;;7.53;3.20;;;14.10;99.60;;;;;;5040718;28;20465;-73
2022/11/03 06:21:46;;;;;;;6.57;2.90;;;14.10;99.60;;;;;;5034453;28;20563;-73
2022/11/03 06:24:16;;;;;;;10.43;2.70;;;14.10;99.60;;;;;;5039139;28;20529;-74
2022/11/03 06:26:46;;;;;;;3.73;2.03;;;14.10;99.60;;;;;;5053703;28;20515;-72
2022/11/03 06:29:17;;;;;;;8.20;2.50;;;14.10;99.60;;;;;;5053344;28;20506;-73
2022/11/03 06:31:49;;;;;;;9.13;2.77;;;14.10;99.60;;;;;;5054579;28;20400;-75
2022/11/03 06:34:40;;;;;;;5.13;2.50;;;14.10;99.60;;;;;;5059090;28;20455;-74
2022/11/03 06:37:22;;;;;;;4.70;2.50;;;14.10;99.90;;;;;;5026858;28;20865;-74
2022/11/03 06:39:49;;;;;;;6.57;3.03;;;14.10;99.60;;;;;;5071785;28;20836;-74
2022/11/03 06:42:19;;;;;;;8.23;2.80;;;14.10;99.70;;;;;;5035955;28;20417;-74
2022/11/03 06:44:48;;;;;;;6.50;2.60;;;14.10;99.70;;;;;;5023471;28;20461;-74
2022/11/03 06:47:24;;;;;;;5.40;2.77;;;14.10;99.70;;;;;;5022944;28;20504;-74
2022/11/03 06:49:52;;;;;;;5.83;2.37;;;14.10;99.70;;;;;;5071671;28;20499;-74
2022/11/03 06:52:38;;;;;;;3.00;2.33;;;14.10;99.80;;;;;;5048406;28;20429;-76
2022/11/03 06:55:07;;;;;;;4.37;2.30;;;14.10;99.80;;;;;;5050880;28;20521;-77
2022/11/03 06:57:38;;;;;;;4.30;2.10;;;14.10;99.80;;;;;;5037243;28;20458;-72
2022/11/03 07:00:16;;;;;;;6.30;2.37;;;14.10;99.70;;;;;;5056724;28;20995;-72
2022/11/03 07:02:53;;;;;;;8.77;2.97;;;14.10;99.80;;;;;;5044225;28;21007;-71
2022/11/03 07:05:22;;;;;;;4.47;2.60;;;14.10;99.80;;;;;;5037861;28;20424;-71
2022/11/03 07:07:52;;;;;;;3.80;2.50;;;14.10;99.80;;;;;;5033546;28;20441;-72
2022/11/03 07:10:26;;;;;;;6.33;2.30;;;14.10;99.80;;;;;;5055492;28;20416;-73
2022/11/03 07:12:54;;;;;;;5.10;2.40;;;14.10;99.80;;;;;;5053449;28;20818;-72
2022/11/03 07:15:37;;;;;;;4.73;2.60;;;14.10;99.90;;;;;;5071464;28;20452;-72
2022/11/03 07:18:26;;;;;;;4.87;2.50;;;14.10;99.90;;;;;;5003119;28;21074;-72
2022/11/03 07:20:56;;;;;;;7.83;2.27;;;14.00;99.80;;;;;;5053456;28;20506;-72
2022/11/03 07:23:29;;;;;;;4.60;2.37;;;14.10;99.90;;;;;;5053987;28;20409;-73
2022/11/03 07:25:59;;;;;;;8.67;2.63;;;14.10;99.90;;;;;;5056061;28;20424;-72
2022/11/03 07:28:33;;;;;;;6.60;2.50;;;14.10;99.90;;;;;;5057036;28;20437;-73
2022/11/03 07:31:15;;;;;;;4.97;2.40;;;14.10;99.90;;;;;;5041133;28;20452;-72
2022/11/03 07:33:43;;;;;;;4.67;2.70;;;14.10;99.90;;;;;;5036483;28;20602;-73
2022/11/03 07:36:23;;;;;;;8.33;2.67;;;14.10;99.90;;;;;;5020952;28;20427;-72
2022/11/03 07:38:51;;;;;;;4.90;2.13;;;14.10;99.90;;;;;;5036716;28;20994;-72
2022/11/03 07:41:25;;;;;;;8.50;2.90;;;14.10;99.90;;;;;;5054914;28;20890;-73
2022/11/03 07:44:00;;;;;;;4.90;2.37;;;14.10;99.90;;;;;;5054813;28;20841;-72
2022/11/03 07:46:26;;;;;;;5.03;2.63;;;14.10;99.90;;;;;;5037127;28;20430;-72
2022/11/03 07:48:58;;;;;;;5.17;2.30;;;14.10;99.90;;;;;;5054883;28;20452;-72
2022/11/03 07:51:31;;;;;;;5.70;3.00;;;14.10;99.90;;;;;;5036847;28;20432;-72
2022/11/03 07:54:14;;;;;;;7.90;3.07;;;14.10;99.90;;;;;;5054683;28;20412;-72
2022/11/03 07:57:05;;;;;;;7.33;2.50;;;14.10;99.90;;;;;;5054682;28;20678;-72
2022/11/03 07:59:42;;;;;;;7.60;2.60;;;14.10;99.90;;;;;;5036547;28;20456;-72
2022/11/03 08:02:57;;;;;;;5.80;2.87;;;14.10;99.90;;;;;;5020240;28;20415;-72
2022/11/03 08:05:28;;;;;;;8.60;2.87;;;14.10;99.90;;;;;;5014670;28;20780;-72
2022/11/03 08:07:56;;;;;;;8.73;2.70;;;14.10;99.90;;;;;;5054249;28;20830;-72
2022/11/03 08:10:22;;;;;;;6.30;2.80;;;14.10;99.90;;;;;;5036462;28;20831;-72
2022/11/03 08:13:11;;;;;;;4.30;2.40;;;14.10;99.90;;;;;;5039068;28;20850;-72
2022/11/03 08:15:39;;;;;;;9.70;3.00;;;14.10;99.90;;;;;;5036514;28;20424;-72
2022/11/03 08:18:09;;;;;;;5.40;2.67;;;14.10;99.90;;;;;;5036545;28;20474;-72
2022/11/03 08:20:37;;;;;;;6.20;3.00;;;14.10;99.90;;;;;;5036233;28;20420;-73
2022/11/03 08:23:03;;;;;;;7.97;2.90;;;14.10;99.90;;;;;;5036264;28;20469;-72
2022/11/03 08:25:37;;;;;;;6.60;2.80;;;14.10;99.90;;;;;;5036391;28;20919;-72
2022/11/03 08:28:05;;;;;;;9.50;3.00;;;14.10;99.90;;;;;;5036159;28;20433;-72
2022/11/03 08:30:32;;;;;;;4.03;2.47;;;14.10;99.90;;;;;;5054473;28;20441;-72
2022/11/03 08:32:59;;;;;;;4.33;2.47;;;14.10;99.90;;;;;;5073759;28;20792;-73
2022/11/03 08:35:30;;;;;;;3.03;2.30;;;14.10;99.90;;;;;;5073806;28;21001;-72
2022/11/03 08:37:58;;;;;;;6.77;2.97;;;14.10;99.90;;;;;;5054906;28;20843;-72
2022/11/03 08:40:24;;;;;;;4.10;2.57;;;14.10;99.90;;;;;;5018820;28;20970;-73
2022/11/03 08:42:52;;;;;;;14.13;2.93;;;14.10;99.90;;;;;;5003912;28;20457;-73
2022/11/03 08:45:20;;;;;;;8.77;2.50;;;14.10;99.90;;;;;;5035780;28;20915;-73
2022/11/03 08:47:49;;;;;;;7.50;2.10;;;14.20;99.90;;;;;;5003286;28;20551;-72
2022/11/03 08:50:15;;;;;;;8.43;3.03;;;14.20;99.90;;;;;;5036076;28;20425;-72
2022/11/03 08:52:41;;;;;;;6.00;2.57;;;14.10;99.90;;;;;;5036105;28;20435;-72
2022/11/03 08:55:07;;;;;;;5.33;2.67;;;14.10;99.90;;;;;;5019600;28;20391;-72
2022/11/03 08:57:33;;;;;;;6.37;2.30;;;14.10;99.90;;;;;;5036004;28;20458;-72
2022/11/03 09:00:02;;;;;;;6.37;2.67;;;14.20;99.90;;;;;;5050813;28;20451;-73
2022/11/03 09:02:28;;;;;;;5.00;2.57;;;14.20;99.90;;;;;;5052373;28;20391;-72
2022/11/03 09:04:57;;;;;;;7.47;2.87;;;14.20;99.90;;;;;;5036007;28;20988;-72
2022/11/03 09:07:28;;;;;;;5.43;2.97;;;14.10;99.90;;;;;;5053809;28;20725;-72
2022/11/03 09:09:57;;;;;;;8.13;2.67;;;14.20;99.90;;;;;;5053286;28;20536;-72
2022/11/03 09:12:27;;;;;;;8.63;2.67;;;14.20;99.90;;;;;;5035672;28;20915;-73
2022/11/03 09:14:56;;;;;;;8.03;2.90;;;14.20;99.90;;;;;;5051828;28;20439;-72
2022/11/03 09:17:22;;;;;;;5.20;3.00;;;14.20;99.90;;;;;;5052044;28;20470;-72
2022/11/03 09:19:48;;;;;;;4.37;2.53;;;14.20;99.90;;;;;;5051729;28;20551;-72
2022/11/03 09:22:21;;;;;;;5.83;2.27;;;14.30;99.90;;;;;;5052324;28;20880;-72
2022/11/03 09:24:47;;;;;;;6.23;2.80;;;14.30;99.90;;;;;;5051970;28;20945;-72
2022/11/03 09:27:13;;;;;;;14.63;3.90;;;14.30;99.90;;;;;;5053369;28;20405;-73
2022/11/03 09:29:39;;;;;;;6.20;3.00;;;14.30;99.90;;;;;;5054677;28;20862;-72
2022/11/03 09:32:05;;;;;;;8.97;3.20;;;14.30;99.90;;;;;;5073045;28;20405;-72
2022/11/03 09:34:31;;;;;;;6.17;3.10;;;14.30;99.90;;;;;;5038697;28;20454;-73
2022/11/03 09:36:57;;;;;;;6.30;2.80;;;14.30;99.90;;;;;;5071713;28;20406;-73
2022/11/03 09:39:23;;;;;;;4.13;2.73;;;14.30;99.90;;;;;;5054989;28;20445;-72
2022/11/03 09:41:51;;;;;;;5.27;2.60;;;14.30;99.90;;;;;;5038409;28;20186;-73
2022/11/03 09:44:22;;;;;;;7.03;2.53;;;14.30;99.90;;;;;;5038781;28;20426;-72
2022/11/03 09:46:50;;;;;;;5.10;2.70;;;14.30;99.90;;;;;;5072708;28;20951;-73
2022/11/03 09:49:18;;;;;;;5.43;2.90;;;14.30;99.90;;;;;;5072424;28;20957;-72
2022/11/03 09:51:44;;;;;;;7.00;3.10;;;14.30;99.90;;;;;;5038261;28;20826;-72
2022/11/03 09:54:16;;;;;;;4.53;2.60;;;14.30;99.90;;;;;;5054550;28;20428;-73
2022/11/03 09:56:43;;;;;;;4.40;2.73;;;14.40;99.90;;;;;;5054710;28;20457;-72
2022/11/03 09:59:17;;;;;;;6.70;3.00;;;14.40;99.90;;;;;;5053899;28;20482;-73
2022/11/03 10:01:47;;;;;;;4.90;2.80;;;14.40;99.90;;;;;;5038139;28;20954;-72
2022/11/03 10:04:16;;;;;;;9.57;3.00;;;14.40;99.90;;;;;;5038039;28;20427;-72
2022/11/03 10:06:44;;;;;;;6.93;2.90;;;14.40;99.90;;;;;;5054558;28;20885;-72
2022/11/03 10:09:19;;;;;;;6.83;2.80;;;14.40;99.90;;;;;;5033430;28;20454;-72
2022/11/03 10:11:46;;;;;;;5.83;2.80;;;14.40;99.90;;;;;;5035023;28;20496;-73
2022/11/03 10:14:17;;;;;;;6.37;2.93;;;14.40;99.90;;;;;;5052087;28;20417;-72
2022/11/03 10:16:59;;;;;;;8.67;3.40;;;14.40;99.90;;;;;;5034532;28;20397;-72
2022/11/03 10:19:29;;;;;;;6.80;2.40;;;14.50;99.90;;;;;;5050563;28;20430;-73
2022/11/03 10:21:57;;;;;;;6.20;2.60;;;14.40;99.90;;;;;;5034424;28;20426;-72
2022/11/03 10:24:24;;;;;;;4.93;2.47;;;14.50;99.90;;;;;;5034479;28;20406;-72
2022/11/03 10:26:56;;;;;;;5.73;2.10;;;14.40;99.90;;;;;;5018051;28;20798;-72
2022/11/03 10:29:26;;;;;;;7.93;3.00;;;14.40;99.90;;;;;;5029064;28;20463;-73
2022/11/03 10:31:55;;;;;;;7.00;3.10;;;14.50;99.90;;;;;;5037521;28;20480;-73
2022/11/03 10:34:40;;;;;;;6.70;2.27;;;14.50;99.90;;;;;;5038356;28;20456;-73
2022/11/03 10:37:12;;;;;;;6.30;2.73;;;14.50;99.90;;;;;;5037968;28;20457;-72
2022/11/03 10:39:44;;;;;;;5.63;2.70;;;14.50;99.90;;;;;;5071816;28;20440;-72
2022/11/03 10:42:32;;;;;;;8.17;2.43;;;14.50;99.90;;;;;;5053904;28;20394;-72
2022/11/03 10:45:21;;;;;;;5.60;2.80;;;14.50;99.90;;;;;;5071894;28;20545;-73
2022/11/03 10:48:09;;;;;;;4.90;2.17;;;14.50;99.90;;;;;;5054073;28;20424;-73
2022/11/03 10:50:43;;;;;;;7.13;3.10;;;14.50;99.90;;;;;;5053561;28;20859;-73
2022/11/03 10:53:19;;;;;;;5.03;2.27;;;14.60;99.90;;;;;;5072108;28;20425;-73
2022/11/03 10:55:45;;;;;;;4.40;2.10;;;14.50;99.90;;;;;;5071883;28;20411;-73
2022/11/03 10:58:11;;;;;;;4.27;2.17;;;14.50;99.90;;;;;;5037146;28;20463;-72
2022/11/03 11:00:41;;;;;;;6.83;3.10;;;14.60;99.90;;;;;;5072866;28;20815;-72
2022/11/03 11:03:13;;;;;;;3.17;2.23;;;14.50;99.90;;;;;;5075390;28;20440;-72
2022/11/03 11:05:45;;;;;;;5.60;2.70;;;14.60;99.90;;;;;;5057913;28;20522;-72
2022/11/03 11:08:31;;;;;;;10.33;3.17;;;14.60;99.90;;;;;;5021677;28;20995;-73
2022/11/03 11:11:07;;;;;;;5.00;2.57;;;14.60;99.90;;;;;;5075415;28;20423;-73
2022/11/03 11:13:35;;;;;;;3.17;2.43;;;14.60;99.90;;;;;;5057150;28;20480;-73
2022/11/03 11:16:46;;;;;;;5.17;2.30;;;14.60;99.90;;;;;;5057760;28;20397;-72
2022/11/03 11:19:14;;;;;;;7.90;2.30;;;14.60;99.90;;;;;;5057067;28;20837;-72
2022/11/03 11:21:40;;;;;;;3.53;1.83;;;14.60;99.90;;;;;;5041145;28;20793;-72
2022/11/03 11:24:13;;;;;;;4.40;2.07;;;14.70;99.90;;;;;;5057754;28;20992;-73
2022/11/03 11:26:39;;;;;;;2.67;2.10;;;14.70;99.90;;;;;;5075475;28;20919;-72
2022/11/03 11:29:08;;;;;;;4.17;2.13;;;14.70;99.90;;;;;;5055813;28;20527;-73
2022/11/03 11:31:42;;;;;;;4.53;2.07;;;14.70;99.90;;;;;;5057520;28;20441;-73
2022/11/03 11:34:20;;;;;;;3.90;1.70;;;14.70;99.90;;;;;;5075097;28;20476;-73
2022/11/03 11:36:52;;;;;;;4.20;2.10;;;14.70;99.90;;;;;;5057514;28;20430;-73
2022/11/03 11:39:27;;;;;;;10.70;2.23;;;14.70;99.90;;;;;;5023987;28;20525;-72
2022/11/03 11:42:08;;;;;;;4.00;1.80;;;14.70;99.80;;;;;;5057261;28;20425;-72
2022/11/03 11:44:48;;;;;;;5.13;2.50;;;14.70;99.80;;;;;;5074866;28;20425;-72
2022/11/03 11:47:36;;;;;;;4.40;2.10;;;14.70;99.80;;;;;;5040710;28;20426;-72
2022/11/03 11:50:05;;;;;;;4.50;2.13;;;14.70;99.80;;;;;;5057141;28;20488;-72
2022/11/03 11:52:43;;;;;;;3.57;2.13;;;14.80;99.80;;;;;;5040307;28;20433;-73
2022/11/03 11:55:19;;;;;;;3.83;2.10;;;14.80;99.90;;;;;;5074778;28;20487;-72
2022/11/03 11:57:48;;;;;;;4.47;2.00;;;14.80;99.80;;;;;;5040231;28;20507;-72
2022/11/03 12:00:27;;;;;;;5.73;1.83;;;14.80;99.80;;;;;;5056836;28;20429;-72
2022/11/03 12:02:53;;;;;;;5.00;1.80;;;14.90;99.80;;;;;;5056935;28;20403;-72
2022/11/03 12:05:26;;;;;;;3.60;1.80;;;14.90;99.70;;;;;;5040473;28;20558;-73
2022/11/03 12:07:53;;;;;;;3.80;2.23;;;14.80;99.70;;;;;;5023717;28;20418;-72
2022/11/03 12:10:25;;;;;;;7.60;2.10;;;14.90;99.70;;;;;;5040135;28;20487;-73
2022/11/03 12:12:52;;;;;;;7.83;2.10;;;14.80;99.70;;;;;;5038870;28;20469;-72
2022/11/03 12:16:07;;;;;;;4.40;2.10;;;14.90;99.70;;;;;;5057133;28;20502;-73
2022/11/03 12:18:40;;;;;;;7.00;2.20;;;14.90;99.70;;;;;;5003604;28;20713;-73
2022/11/03 12:21:32;;;;;;;7.00;2.17;;;14.90;99.70;;;;;;5036526;28;20487;-72
2022/11/03 12:24:46;;;;;;;3.97;1.90;;;14.90;99.70;;;;;;5036453;28;20403;-72
2022/11/03 12:27:23;;;;;;;5.23;2.20;;;14.90;99.70;;;;;;5032071;28;20827;-72
2022/11/03 12:29:51;;;;;;;3.90;2.13;;;14.90;99.70;;;;;;5056440;28;20803;-72
2022/11/03 12:32:22;;;;;;;3.17;1.73;;;14.90;99.70;;;;;;5040368;28;20415;-72
2022/11/03 12:34:48;;;;;;;4.60;1.73;;;14.90;99.70;;;;;;5039658;28;20515;-72
2022/11/03 12:37:14;;;;;;;4.47;1.87;;;14.90;99.70;;;;;;5074006;28;20457;-72
2022/11/03 12:39:45;;;;;;;6.17;2.77;;;14.90;99.60;;;;;;5056162;28;20535;-73
2022/11/03 12:42:14;;;;;;;3.63;2.30;;;14.90;99.60;;;;;;5074108;28;20402;-73
2022/11/03 12:44:45;;;;;;;2.60;2.00;;;15.00;99.60;;;;;;5056094;28;20901;-72
2022/11/03 12:47:17;;;;;;;4.40;1.80;;;14.90;99.60;;;;;;5040349;28;20493;-72
2022/11/03 12:49:45;;;;;;;3.77;2.13;;;15.00;99.60;;;;;;5055968;28;20463;-73
2022/11/03 12:52:11;;;;;;;3.00;1.80;;;15.00;99.60;;;;;;5073940;28;20406;-73
2022/11/03 12:54:38;;;;;;;4.63;1.87;;;15.00;99.60;;;;;;5039295;28;20448;-72
2022/11/03 12:57:07;;;;;;;2.53;1.70;;;15.00;99.60;;;;;;5021550;23;20497;-75
2022/11/03 12:59:33;;;;;;;4.93;1.87;;;15.00;99.50;;;;;;4980734;28;20852;-75
2022/11/03 13:02:01;;;;;;;4.37;1.97;;;15.00;99.60;;;;;;4989007;28;20419;-75
2022/11/03 13:04:27;;;;;;;2.53;1.50;;;15.00;99.60;;;;;;4996116;28;20402;-75
2022/11/03 13:06:53;;;;;;;5.50;1.60;;;15.00;99.50;;;;;;4996395;28;20827;-75
2022/11/03 13:09:26;;;;;;;4.23;1.97;;;15.00;99.50;;;;;;5013542;28;20438;-75
2022/11/03 13:14:38;;;;;;;2.63;1.80;;;15.00;99.50;;;;;;5013262;28;20498;-75
2022/11/03 13:17:04;;;;;;;3.03;1.47;;;15.10;99.50;;;;;;4996211;28;20465;-75
2022/11/03 13:19:33;;;;;;;3.70;1.80;;;15.00;99.50;;;;;;5013372;28;20437;-75
2022/11/03 13:22:01;;;;;;;5.50;2.20;;;15.10;99.60;;;;;;4980763;28;20412;-75
2022/11/03 13:24:27;;;;;;;2.73;2.50;;;15.00;99.50;;;;;;5012024;28;20798;-75
2022/11/03 13:26:53;;;;;;;2.90;1.70;;;15.10;99.50;;;;;;5012277;28;20759;-75
2022/11/03 13:29:21;;;;;;;6.83;1.77;;;15.10;99.60;;;;;;4994276;28;20541;-75
2022/11/03 13:31:47;;;;;;;12.47;2.40;;;15.10;99.50;;;;;;5013343;28;20425;-74